createdAt,value
2017-03-25T00:00:29.623Z,5.1
2017-03-25T00:01:39.539Z,5.1
2017-03-25T00:02:49.222Z,5.1
2017-03-25T00:03:59.165Z,5.07
2017-03-25T00:05:08.836Z,5.07
2017-03-25T00:06:18.679Z,5.11
2017-03-25T00:07:28.871Z,5.06
2017-03-25T00:08:38.786Z,5.08
2017-03-25T00:09:48.370Z,5.1
2017-03-25T00:10:58.332Z,5.04
2017-03-25T00:12:08.517Z,5.04
2017-03-25T00:13:18.455Z,5
2017-03-25T00:14:28.388Z,5.04
2017-03-25T00:15:38.392Z,4.99
2017-03-25T00:16:48.306Z,5.03
2017-03-25T00:19:12.311Z,4.96
2017-03-25T00:20:22.286Z,4.96
2017-03-25T00:21:32.261Z,4.9
2017-03-25T00:22:41.861Z,4.93
2017-03-25T00:23:51.514Z,4.92
2017-03-25T00:25:01.435Z,4.93
2017-03-25T00:26:11.409Z,4.93
2017-03-25T00:27:21.458Z,4.92
2017-03-25T00:28:31.422Z,4.8
2017-03-25T00:29:41.454Z,4.83
2017-03-25T00:30:51.801Z,4.86
2017-03-25T00:32:01.713Z,4.86
2017-03-25T00:33:11.623Z,4.8
2017-03-25T00:34:21.674Z,4.73
2017-03-25T00:35:30.996Z,4.8
2017-03-25T00:36:40.818Z,4.8
2017-03-25T00:37:50.400Z,4.75
2017-03-25T00:39:00.098Z,4.63
2017-03-25T00:40:10.008Z,4.67
2017-03-25T00:41:19.958Z,4.59
2017-03-25T00:42:30.146Z,4.73
2017-03-25T00:43:39.730Z,4.59
2017-03-25T00:44:49.670Z,4.67
2017-03-25T00:45:59.248Z,4.49
2017-03-25T00:47:08.830Z,4.49
2017-03-25T00:48:19.023Z,4.55
2017-03-25T00:49:28.983Z,4.53
2017-03-25T00:50:38.611Z,4.49
2017-03-25T00:51:48.591Z,4.43
2017-03-25T00:52:58.524Z,4.49
2017-03-25T00:54:08.041Z,4.4
2017-03-25T00:55:17.964Z,4.47
2017-03-25T00:56:27.902Z,4.4
2017-03-25T00:57:37.916Z,4.38
2017-03-25T00:58:47.828Z,4.46
2017-03-25T00:59:58.049Z,4.3
2017-03-25T01:01:07.657Z,4.41
2017-03-25T01:02:17.697Z,4.41
2017-03-25T01:03:27.665Z,4.3
2017-03-25T01:04:37.256Z,4.23
2017-03-25T01:05:47.091Z,4.33
2017-03-25T01:06:56.703Z,4.36
2017-03-25T01:08:06.323Z,4.3
2017-03-25T01:09:16.343Z,4.22
2017-03-25T01:10:26.287Z,4.3
2017-03-25T01:11:36.514Z,4.22
2017-03-25T01:12:46.480Z,4.25
2017-03-25T01:13:56.389Z,4.2
2017-03-25T01:15:05.968Z,4.13
2017-03-25T01:16:16.020Z,4.13
2017-03-25T01:17:25.332Z,4.2
2017-03-25T01:18:34.913Z,4.16
2017-03-25T01:19:44.511Z,4.16
2017-03-25T01:20:54.140Z,4.2
2017-03-25T01:22:03.955Z,4.15
2017-03-25T01:23:14.140Z,4.19
2017-03-25T01:24:23.715Z,4.16
2017-03-25T01:25:33.851Z,4.19
2017-03-25T01:26:43.790Z,4.16
2017-03-25T01:27:53.455Z,4.13
2017-03-25T01:29:03.635Z,4.22
2017-03-25T01:30:13.565Z,4.13
2017-03-25T01:31:23.170Z,4.19
2017-03-25T01:32:33.115Z,4.23
2017-03-25T01:33:43.018Z,4.22
2017-03-25T01:34:53.174Z,4.22
2017-03-25T01:36:03.087Z,4.23
2017-03-25T01:37:13.043Z,4.09
2017-03-25T01:38:22.685Z,4.22
2017-03-25T01:39:32.277Z,4.12
2017-03-25T01:40:42.193Z,4.18
2017-03-25T01:41:52.156Z,4.11
2017-03-25T01:43:01.731Z,4.12
2017-03-25T01:44:11.499Z,4
2017-03-25T01:45:21.122Z,4.09
2017-03-25T01:46:31.334Z,4.03
2017-03-25T01:47:41.269Z,4.03
2017-03-25T01:48:51.210Z,3.98
2017-03-25T01:50:00.640Z,3.98
2017-03-25T01:51:10.545Z,4
2017-03-25T01:52:20.484Z,3.9
2017-03-25T01:53:30.100Z,3.9
2017-03-25T01:54:40.221Z,3.86
2017-03-25T01:55:50.200Z,3.9
2017-03-25T01:57:00.321Z,3.9
2017-03-25T01:58:10.595Z,3.8
2017-03-25T01:59:20.499Z,3.87
2017-03-25T02:00:30.470Z,3.85
2017-03-25T02:01:40.380Z,3.79
2017-03-25T02:02:50.326Z,3.85
2017-03-25T02:04:00.570Z,3.82
2017-03-25T02:05:10.156Z,3.8
2017-03-25T02:06:20.061Z,3.8
2017-03-25T02:07:29.656Z,3.75
2017-03-25T02:08:39.245Z,3.79
2017-03-25T02:09:49.395Z,3.76
2017-03-25T02:10:59.190Z,3.75
2017-03-25T02:12:09.194Z,3.73
2017-03-25T02:13:19.106Z,3.73
2017-03-25T02:14:29.048Z,3.69
2017-03-25T02:15:38.942Z,3.67
2017-03-25T02:16:48.538Z,3.77
2017-03-25T02:17:58.159Z,3.67
2017-03-25T02:19:08.178Z,3.69
2017-03-25T02:20:17.832Z,3.67
2017-03-25T02:21:27.679Z,3.8
2017-03-25T02:22:36.980Z,3.79
2017-03-25T02:23:46.875Z,3.83
2017-03-25T02:24:56.564Z,3.77
2017-03-25T02:26:06.511Z,3.77
2017-03-25T02:27:16.569Z,3.69
2017-03-25T02:28:25.833Z,3.67
2017-03-25T02:29:35.730Z,3.67
2017-03-25T02:30:45.619Z,3.69
2017-03-25T02:31:55.212Z,3.67
2017-03-25T02:33:05.041Z,3.76
2017-03-25T02:34:14.946Z,3.75
2017-03-25T02:35:24.257Z,3.85
2017-03-25T02:36:34.266Z,3.79
2017-03-25T02:37:43.887Z,3.85
2017-03-25T02:38:54.252Z,3.85
2017-03-25T02:40:04.259Z,3.82
2017-03-25T02:41:14.236Z,3.86
2017-03-25T02:42:24.231Z,3.82
2017-03-25T02:43:33.861Z,3.87
2017-03-25T02:44:44.115Z,3.79
2017-03-25T02:45:54.114Z,3.75
2017-03-25T02:47:04.085Z,3.73
2017-03-25T02:48:14.029Z,3.64
2017-03-25T02:49:23.618Z,3.73
2017-03-25T02:50:33.488Z,3.67
2017-03-25T02:51:43.427Z,3.79
2017-03-25T02:52:53.008Z,3.72
2017-03-25T02:54:02.979Z,3.73
2017-03-25T02:55:12.888Z,3.69
2017-03-25T02:56:23.076Z,3.65
2017-03-25T02:57:32.988Z,3.69
2017-03-25T02:58:42.994Z,3.65
2017-03-25T02:59:52.591Z,3.55
2017-03-25T03:01:02.315Z,3.69
2017-03-25T03:02:12.463Z,3.59
2017-03-25T03:03:22.065Z,3.69
2017-03-25T03:04:31.959Z,3.59
2017-03-25T03:05:41.285Z,3.57
2017-03-25T03:06:51.205Z,3.58
2017-03-25T03:08:01.447Z,3.64
2017-03-25T03:09:11.060Z,3.59
2017-03-25T03:10:20.637Z,3.54
2017-03-25T03:11:30.218Z,3.54
2017-03-25T03:12:40.249Z,3.47
2017-03-25T03:13:50.423Z,3.52
2017-03-25T03:15:00.052Z,3.47
2017-03-25T03:16:09.965Z,3.44
2017-03-25T03:17:19.626Z,3.47
2017-03-25T03:18:29.242Z,3.46
2017-03-25T03:19:39.790Z,3.49
2017-03-25T03:20:49.719Z,3.47
2017-03-25T03:21:59.390Z,3.49
2017-03-25T03:23:08.688Z,3.43
2017-03-25T03:24:18.617Z,3.46
2017-03-25T03:25:28.786Z,3.54
2017-03-25T03:26:38.696Z,3.34
2017-03-25T03:27:48.612Z,3.39
2017-03-25T03:28:58.525Z,3.43
2017-03-25T03:30:08.437Z,3.46
2017-03-25T03:31:18.605Z,3.4
2017-03-25T03:32:28.579Z,3.34
2017-03-25T03:33:38.250Z,3.5
2017-03-25T03:34:47.826Z,3.49
2017-03-25T03:35:57.109Z,3.49
2017-03-25T03:37:07.059Z,3.43
2017-03-25T03:38:17.002Z,3.43
2017-03-25T03:39:26.915Z,3.5
2017-03-25T03:40:36.881Z,3.42
2017-03-25T03:41:46.456Z,3.4
2017-03-25T03:42:56.669Z,3.44
2017-03-25T03:44:06.624Z,3.39
2017-03-25T03:45:16.557Z,3.4
2017-03-25T03:46:26.197Z,3.43
2017-03-25T03:47:35.803Z,3.42
2017-03-25T03:48:45.668Z,3.4
2017-03-25T03:49:55.605Z,3.39
2017-03-25T03:51:05.506Z,3.25
2017-03-25T03:52:15.209Z,3.25
2017-03-25T03:53:24.821Z,3.31
2017-03-25T03:54:34.975Z,3.28
2017-03-25T03:55:44.910Z,3.21
2017-03-25T03:56:54.817Z,3.26
2017-03-25T03:58:04.764Z,3.25
2017-03-25T03:59:14.355Z,3.26
2017-03-25T04:00:24.244Z,3.32
2017-03-25T04:01:34.139Z,3.36
2017-03-25T04:02:44.052Z,3.4
2017-03-25T04:03:53.946Z,3.32
2017-03-25T04:05:03.546Z,3.42
2017-03-25T04:06:13.778Z,3.32
2017-03-25T04:07:23.677Z,3.31
2017-03-25T04:08:33.686Z,3.34
2017-03-25T04:09:43.724Z,3.36
2017-03-25T04:10:53.672Z,3.42
2017-03-25T04:12:03.555Z,3.43
2017-03-25T04:13:13.146Z,3.43
2017-03-25T04:14:23.052Z,3.4
2017-03-25T04:15:32.692Z,3.43
2017-03-25T04:16:42.576Z,3.37
2017-03-25T04:17:52.159Z,3.46
2017-03-25T04:19:01.504Z,3.39
2017-03-25T04:20:11.404Z,3.44
2017-03-25T04:21:21.304Z,3.4
2017-03-25T04:22:31.304Z,3.39
2017-03-25T04:23:41.532Z,3.47
2017-03-25T04:24:51.489Z,3.46
2017-03-25T04:26:01.108Z,3.42
2017-03-25T04:27:10.702Z,3.43
2017-03-25T04:28:20.633Z,3.42
2017-03-25T04:29:30.792Z,3.36
2017-03-25T04:30:40.882Z,3.4
2017-03-25T04:31:50.811Z,3.43
2017-03-25T04:33:00.400Z,3.34
2017-03-25T04:34:09.850Z,3.25
2017-03-25T04:35:20.046Z,3.32
2017-03-25T04:36:30.057Z,3.37
2017-03-25T04:37:39.994Z,3.29
2017-03-25T04:38:49.920Z,3.25
2017-03-25T04:40:00.039Z,3.32
2017-03-25T04:41:10.207Z,3.31
2017-03-25T04:42:19.816Z,3.32
2017-03-25T04:43:29.784Z,3.4
2017-03-25T04:44:39.741Z,3.42
2017-03-25T04:45:49.741Z,3.46
2017-03-25T04:47:00.068Z,3.42
2017-03-25T04:48:10.172Z,3.36
2017-03-25T04:49:19.823Z,3.34
2017-03-25T04:50:29.410Z,3.42
2017-03-25T04:51:39.000Z,3.39
2017-03-25T04:52:48.850Z,3.25
2017-03-25T04:53:58.839Z,3.29
2017-03-25T04:55:08.776Z,3.39
2017-03-25T04:56:18.701Z,3.5
2017-03-25T04:57:28.284Z,3.47
2017-03-25T04:58:38.491Z,3.59
2017-03-25T04:59:48.391Z,3.57
2017-03-25T05:00:58.126Z,3.46
2017-03-25T05:02:07.702Z,3.47
2017-03-25T05:03:16.969Z,3.49
2017-03-25T05:04:27.178Z,3.55
2017-03-25T05:05:37.117Z,3.64
2017-03-25T05:06:47.011Z,3.64
2017-03-25T05:07:56.396Z,3.64
2017-03-25T05:09:05.673Z,3.67
2017-03-25T05:10:15.978Z,3.64
2017-03-25T05:11:26.104Z,3.68
2017-03-25T05:12:35.950Z,3.72
2017-03-25T05:13:45.859Z,3.75
2017-03-25T05:14:55.178Z,3.73
2017-03-25T05:16:05.459Z,3.73
2017-03-25T05:17:15.362Z,3.73
2017-03-25T05:18:24.943Z,3.8
2017-03-25T05:19:34.875Z,3.73
2017-03-25T05:20:44.487Z,3.72
2017-03-25T05:21:54.394Z,3.72
2017-03-25T05:23:04.018Z,3.72
2017-03-25T05:24:14.033Z,3.69
2017-03-25T05:25:24.035Z,3.69
2017-03-25T05:26:33.643Z,3.68
2017-03-25T05:27:43.877Z,3.61
2017-03-25T05:28:53.462Z,3.55
2017-03-25T05:30:03.379Z,3.52
2017-03-25T05:31:13.289Z,3.47
2017-03-25T05:32:22.933Z,3.58
2017-03-25T05:33:32.759Z,3.4
2017-03-25T05:34:42.660Z,3.39
2017-03-25T05:35:52.346Z,3.46
2017-03-25T05:37:01.994Z,3.37
2017-03-25T05:38:11.578Z,3.26
2017-03-25T05:39:21.459Z,3.18
2017-03-25T05:40:31.422Z,3.24
2017-03-25T05:41:41.004Z,3.29
2017-03-25T05:42:50.921Z,3.29
2017-03-25T05:44:00.851Z,3.36
2017-03-25T05:45:10.998Z,3.44
2017-03-25T05:46:20.959Z,3.43
2017-03-25T05:47:30.544Z,3.37
2017-03-25T05:48:40.458Z,3.4
2017-03-25T05:49:50.408Z,3.37
2017-03-25T05:51:00.572Z,3.43
2017-03-25T05:52:10.583Z,3.4
2017-03-25T05:53:20.216Z,3.44
2017-03-25T05:54:30.236Z,3.47
2017-03-25T05:55:40.147Z,3.4
2017-03-25T05:56:50.353Z,3.42
2017-03-25T05:58:00.241Z,3.43
2017-03-25T05:59:10.247Z,3.49
2017-03-25T06:00:20.233Z,3.54
2017-03-25T06:01:30.159Z,3.54
2017-03-25T06:02:40.306Z,3.5
2017-03-25T06:03:49.922Z,3.54
2017-03-25T06:04:59.878Z,3.61
2017-03-25T06:06:09.469Z,3.54
2017-03-25T06:07:19.189Z,3.72
2017-03-25T06:08:29.109Z,3.67
2017-03-25T06:09:38.772Z,3.65
2017-03-25T06:10:48.356Z,3.73
2017-03-25T06:11:58.425Z,3.68
2017-03-25T06:13:08.358Z,3.68
2017-03-25T06:14:18.522Z,3.62
2017-03-25T06:15:28.269Z,3.73
2017-03-25T06:16:37.541Z,3.72
2017-03-25T06:17:47.133Z,3.76
2017-03-25T06:18:57.071Z,3.76
2017-03-25T06:20:07.300Z,3.82
2017-03-25T06:21:17.037Z,3.8
2017-03-25T06:22:26.626Z,3.97
2017-03-25T06:23:36.249Z,3.95
2017-03-25T06:24:46.151Z,3.9
2017-03-25T06:25:55.668Z,3.87
2017-03-25T06:27:05.662Z,3.9
2017-03-25T06:28:15.607Z,3.98
2017-03-25T06:29:25.604Z,3.95
2017-03-25T06:30:35.261Z,4.03
2017-03-25T06:31:45.450Z,4.04
2017-03-25T06:32:55.075Z,4.08
2017-03-25T06:34:05.008Z,4.04
2017-03-25T06:35:14.952Z,4.04
2017-03-25T06:36:24.854Z,4.08
2017-03-25T06:37:35.065Z,4.19
2017-03-25T06:38:44.980Z,4.18
2017-03-25T06:39:55.046Z,4.19
2017-03-25T06:41:04.955Z,4.11
2017-03-25T06:42:14.867Z,4.2
2017-03-25T06:43:25.165Z,4.2
2017-03-25T06:44:35.132Z,4.22
2017-03-25T06:45:44.482Z,4.37
2017-03-25T06:46:54.068Z,4.4
2017-03-25T06:48:04.024Z,4.53
2017-03-25T06:49:13.910Z,4.53
2017-03-25T06:50:23.532Z,4.62
2017-03-25T06:51:33.438Z,4.63
2017-03-25T06:52:43.391Z,4.63
2017-03-25T06:53:53.677Z,4.6
2017-03-25T06:55:03.866Z,4.74
2017-03-25T06:56:13.892Z,4.7
2017-03-25T06:57:23.505Z,4.73
2017-03-25T06:58:33.145Z,4.77
2017-03-25T06:59:42.527Z,4.8
2017-03-25T07:00:52.687Z,4.98
2017-03-25T07:02:02.845Z,5.04
2017-03-25T07:03:12.864Z,5.08
2017-03-25T07:04:22.447Z,5.18
2017-03-25T07:05:32.351Z,5.28
2017-03-25T07:06:42.503Z,5.18
2017-03-25T07:07:52.418Z,5.25
2017-03-25T07:09:02.389Z,5.29
2017-03-25T07:10:11.998Z,5.46
2017-03-25T07:11:21.919Z,5.46
2017-03-25T07:12:32.316Z,5.62
2017-03-25T07:13:42.261Z,5.68
2017-03-25T07:14:52.170Z,5.72
2017-03-25T07:16:02.127Z,5.69
2017-03-25T07:17:12.034Z,5.68
2017-03-25T07:18:22.285Z,5.83
2017-03-25T07:19:32.200Z,5.82
2017-03-25T07:20:41.798Z,5.84
2017-03-25T07:21:51.494Z,5.9
2017-03-25T07:23:01.413Z,5.94
2017-03-25T07:24:11.355Z,6.08
2017-03-25T07:25:21.275Z,6.14
2017-03-25T07:26:31.179Z,6.23
2017-03-25T07:27:41.091Z,6.26
2017-03-25T07:28:51.023Z,6.42
2017-03-25T07:30:01.203Z,6.48
2017-03-25T07:31:10.851Z,6.6
2017-03-25T07:32:20.766Z,6.52
2017-03-25T07:33:30.377Z,6.64
2017-03-25T07:34:40.349Z,6.81
2017-03-25T07:35:50.535Z,6.81
2017-03-25T07:37:00.444Z,6.93
2017-03-25T07:38:10.069Z,6.89
2017-03-25T07:39:19.348Z,6.95
2017-03-25T07:40:29.255Z,7
2017-03-25T07:41:39.488Z,7.11
2017-03-25T07:42:49.068Z,7.11
2017-03-25T07:43:58.984Z,7.21
2017-03-25T07:45:08.960Z,7.22
2017-03-25T07:46:18.977Z,7.47
2017-03-25T07:47:29.229Z,7.73
2017-03-25T07:48:38.823Z,7.84
2017-03-25T07:49:48.807Z,7.88
2017-03-25T07:50:58.458Z,7.97
2017-03-25T07:52:08.518Z,8.12
2017-03-25T07:53:18.730Z,8.3
2017-03-25T07:54:28.339Z,8.45
2017-03-25T07:55:38.244Z,8.66
2017-03-25T07:56:47.527Z,8.87
2017-03-25T07:57:57.203Z,9.26
2017-03-25T07:59:07.445Z,9.5
2017-03-25T08:00:17.361Z,9.62
2017-03-25T08:01:27.008Z,9.77
2017-03-25T08:02:36.993Z,9.89
2017-03-25T08:03:46.971Z,10.17
2017-03-25T08:04:56.829Z,10.39
2017-03-25T08:06:06.831Z,10.52
2017-03-25T08:07:18.451Z,10.84
2017-03-25T08:08:29.036Z,11.4
2017-03-25T08:09:39.225Z,12.07
2017-03-25T08:10:49.839Z,12.6
2017-03-25T08:12:00.454Z,12.92
2017-03-25T08:13:10.689Z,13.37
2017-03-25T08:14:21.220Z,13.73
2017-03-25T08:15:31.417Z,14.13
2017-03-25T08:16:42.271Z,14.36
2017-03-25T08:17:52.508Z,14.69
2017-03-25T08:19:03.015Z,14.95
2017-03-25T08:20:13.037Z,15.09
2017-03-25T08:21:23.261Z,15.33
2017-03-25T08:22:34.054Z,15.66
2017-03-25T08:23:44.581Z,15.82
2017-03-25T08:24:55.132Z,15.96
2017-03-25T08:26:05.365Z,16.09
2017-03-25T08:27:15.867Z,16.17
2017-03-25T08:28:26.642Z,16.32
2017-03-25T08:29:37.322Z,16.39
2017-03-25T08:30:47.534Z,16.53
2017-03-25T08:31:57.739Z,16.53
2017-03-25T08:33:07.960Z,16.82
2017-03-25T08:34:18.784Z,17.08
2017-03-25T08:35:29.308Z,17.42
2017-03-25T08:36:39.958Z,17.57
2017-03-25T08:37:50.129Z,17.75
2017-03-25T08:39:00.330Z,17.98
2017-03-25T08:40:11.214Z,18.16
2017-03-25T08:41:21.716Z,18.38
2017-03-25T08:42:31.599Z,18.49
2017-03-25T08:43:41.813Z,18.79
2017-03-25T08:44:52.449Z,18.8
2017-03-25T08:46:03.226Z,18.69
2017-03-25T08:47:13.734Z,18.49
2017-03-25T08:48:23.972Z,18.3
2017-03-25T08:49:34.561Z,18.3
2017-03-25T08:50:45.219Z,18.26
2017-03-25T08:51:56.012Z,18.31
2017-03-25T08:53:06.547Z,18.42
2017-03-25T08:54:16.799Z,18.59
2017-03-25T08:55:27.406Z,18.62
2017-03-25T08:56:37.601Z,18.9
2017-03-25T08:57:47.627Z,19.23
2017-03-25T08:58:58.212Z,19.25
2017-03-25T09:00:08.824Z,19.65
2017-03-25T09:01:19.093Z,19.86
2017-03-25T09:02:29.345Z,20.11
2017-03-25T09:03:39.913Z,20.16
2017-03-25T09:04:50.476Z,20.08
2017-03-25T09:06:00.683Z,20.11
2017-03-25T09:07:10.801Z,20.24
2017-03-25T09:08:21.126Z,20.28
2017-03-25T09:09:31.920Z,20.48
2017-03-25T09:10:42.480Z,20.64
2017-03-25T09:11:52.773Z,20.75
2017-03-25T09:13:03.316Z,20.88
2017-03-25T09:14:13.828Z,20.83
2017-03-25T09:15:24.405Z,20.86
2017-03-25T09:16:34.968Z,20.78
2017-03-25T09:17:45.183Z,20.6
2017-03-25T09:18:56.367Z,20.75
2017-03-25T09:20:07.931Z,20.96
2017-03-25T09:21:18.366Z,21.04
2017-03-25T09:22:28.508Z,21.12
2017-03-25T09:23:39.139Z,21.04
2017-03-25T09:24:49.665Z,20.98
2017-03-25T09:26:00.216Z,20.98
2017-03-25T09:27:10.989Z,21.13
2017-03-25T09:28:21.668Z,21.2
2017-03-25T09:29:31.917Z,21.31
2017-03-25T09:30:42.577Z,21.35
2017-03-25T09:31:53.001Z,21.13
2017-03-25T09:33:03.589Z,20.86
2017-03-25T09:34:14.154Z,20.76
2017-03-25T09:35:24.711Z,20.73
2017-03-25T09:36:35.330Z,20.71
2017-03-25T09:37:45.539Z,20.45
2017-03-25T09:38:56.323Z,20.53
2017-03-25T09:40:06.205Z,20.48
2017-03-25T09:41:16.774Z,20.34
2017-03-25T09:42:27.002Z,20.48
2017-03-25T09:43:37.524Z,20.48
2017-03-25T09:44:48.946Z,20.53
2017-03-25T09:46:00.115Z,20.64
2017-03-25T09:47:10.324Z,20.63
2017-03-25T09:48:20.930Z,20.61
2017-03-25T09:49:31.478Z,20.85
2017-03-25T09:50:41.990Z,21.12
2017-03-25T09:51:51.884Z,21.23
2017-03-25T09:53:02.403Z,21.25
2017-03-25T09:54:13.012Z,21.27
2017-03-25T09:55:24.202Z,21.25
2017-03-25T09:56:34.768Z,21.56
2017-03-25T09:57:45.318Z,21.48
2017-03-25T09:58:55.217Z,21.4
2017-03-25T10:00:05.467Z,21.4
2017-03-25T10:01:15.976Z,21.37
2017-03-25T10:02:26.757Z,21.19
2017-03-25T10:03:37.004Z,20.97
2017-03-25T10:04:47.206Z,20.96
2017-03-25T10:05:58.093Z,20.82
2017-03-25T10:07:08.624Z,20.73
2017-03-25T10:08:19.084Z,20.73
2017-03-25T10:09:29.218Z,20.85
2017-03-25T10:10:39.759Z,20.71
2017-03-25T10:11:50.274Z,20.58
2017-03-25T10:13:00.829Z,20.53
2017-03-25T10:14:11.651Z,20.46
2017-03-25T10:15:21.532Z,20.43
2017-03-25T10:16:32.062Z,20.42
2017-03-25T10:17:42.618Z,20.48
2017-03-25T10:18:53.220Z,20.43
2017-03-25T10:20:04.130Z,20.46
2017-03-25T10:21:15.641Z,20.41
2017-03-25T10:22:26.255Z,20.43
2017-03-25T10:23:36.861Z,20.3
2017-03-25T10:24:46.424Z,20.36
2017-03-25T10:25:56.875Z,20.49
2017-03-25T10:27:07.121Z,20.57
2017-03-25T10:28:17.685Z,20.54
2017-03-25T10:29:28.047Z,20.56
2017-03-25T10:30:38.674Z,20.68
2017-03-25T10:31:49.481Z,20.6
2017-03-25T10:33:00.045Z,20.56
2017-03-25T10:34:10.647Z,20.42
2017-03-25T10:35:20.886Z,20.27
2017-03-25T10:36:31.414Z,20.11
2017-03-25T10:37:41.978Z,20.2
2017-03-25T10:38:52.247Z,20.14
2017-03-25T10:40:02.796Z,20.38
2017-03-25T10:41:13.059Z,20.63
2017-03-25T10:42:23.310Z,20.79
2017-03-25T10:43:34.087Z,20.98
2017-03-25T10:44:44.647Z,21.12
2017-03-25T10:45:54.859Z,21.45
2017-03-25T10:47:05.434Z,21.71
2017-03-25T10:48:15.985Z,21.81
2017-03-25T10:49:26.794Z,21.61
2017-03-25T10:50:36.712Z,21.41
2017-03-25T10:51:47.250Z,21.27
2017-03-25T10:52:57.537Z,21.16
2017-03-25T10:54:07.487Z,21.2
2017-03-25T10:55:19.362Z,21.08
2017-03-25T10:56:29.927Z,20.85
2017-03-25T10:57:40.223Z,20.81
2017-03-25T10:58:50.819Z,20.73
2017-03-25T11:00:01.360Z,20.66
2017-03-25T11:01:12.138Z,20.75
2017-03-25T11:02:22.686Z,20.78
2017-03-25T11:03:33.220Z,20.67
2017-03-25T11:04:43.114Z,20.68
2017-03-25T11:05:53.412Z,20.83
2017-03-25T11:07:05.154Z,20.98
2017-03-25T11:08:15.688Z,20.98
2017-03-25T11:09:26.211Z,20.83
2017-03-25T11:10:36.793Z,20.86
2017-03-25T11:11:48.001Z,20.76
2017-03-25T11:12:58.509Z,20.98
2017-03-25T11:14:10.037Z,20.94
2017-03-25T11:15:20.257Z,21.06
2017-03-25T11:16:30.155Z,21
2017-03-25T11:17:40.685Z,20.97
2017-03-25T11:18:51.918Z,20.86
2017-03-25T11:20:02.547Z,20.73
2017-03-25T11:21:13.101Z,20.71
2017-03-25T11:22:23.697Z,20.53
2017-03-25T11:23:33.931Z,20.49
2017-03-25T11:24:44.783Z,20.54
2017-03-25T11:25:56.274Z,20.46
2017-03-25T11:27:06.969Z,20.53
2017-03-25T11:28:17.488Z,20.54
2017-03-25T11:29:28.043Z,20.76
2017-03-25T11:30:38.815Z,20.85
2017-03-25T11:31:49.021Z,20.96
2017-03-25T11:32:59.300Z,21.12
2017-03-25T11:34:09.921Z,21.34
2017-03-25T11:35:20.206Z,21.49
2017-03-25T11:36:31.039Z,21.69
2017-03-25T11:37:41.315Z,21.97
2017-03-25T11:38:51.625Z,21.98
2017-03-25T11:40:02.169Z,22.03
2017-03-25T11:41:12.732Z,22.15
2017-03-25T11:42:23.513Z,21.97
2017-03-25T11:43:34.028Z,21.76
2017-03-25T11:44:44.697Z,21.65
2017-03-25T11:45:55.236Z,21.6
2017-03-25T11:47:05.492Z,21.56
2017-03-25T11:48:17.230Z,21.48
2017-03-25T11:49:27.822Z,21.31
2017-03-25T11:50:38.386Z,21.28
2017-03-25T11:51:49.002Z,21.3
2017-03-25T11:53:00.281Z,21.33
2017-03-25T11:54:11.117Z,21.23
2017-03-25T11:55:21.375Z,20.96
2017-03-25T11:56:31.638Z,20.6
2017-03-25T11:57:41.890Z,20.38
2017-03-25T11:58:52.515Z,20.3
2017-03-25T12:00:02.976Z,20.12
2017-03-25T12:01:13.309Z,20.07
2017-03-25T12:02:23.834Z,20.12
2017-03-25T12:03:34.435Z,20.05
2017-03-25T12:04:44.969Z,20.03
2017-03-25T12:05:55.454Z,19.98
2017-03-25T12:07:05.681Z,20.03
2017-03-25T12:08:16.213Z,19.93
2017-03-25T12:09:26.797Z,20.08
2017-03-25T12:10:37.334Z,20.23
2017-03-25T12:11:48.170Z,20.23
2017-03-25T12:12:58.756Z,20.31
2017-03-25T12:14:08.978Z,20.31
2017-03-25T12:15:19.522Z,20.53
2017-03-25T12:16:29.647Z,20.48
2017-03-25T12:17:40.188Z,20.53
2017-03-25T12:18:50.201Z,20.45
2017-03-25T12:20:00.648Z,20.57
2017-03-25T12:21:10.865Z,20.73
2017-03-25T12:22:21.160Z,20.78
2017-03-25T12:23:31.311Z,20.75
2017-03-25T12:24:41.522Z,20.57
2017-03-25T12:25:52.091Z,20.57
2017-03-25T12:27:02.636Z,20.54
2017-03-25T12:28:12.948Z,20.53
2017-03-25T12:29:24.432Z,20.6
2017-03-25T12:30:34.682Z,20.78
2017-03-25T12:31:46.166Z,20.82
2017-03-25T12:32:56.725Z,20.78
2017-03-25T12:34:07.390Z,20.66
2017-03-25T12:35:18.275Z,20.61
2017-03-25T12:36:28.861Z,20.42
2017-03-25T12:37:39.408Z,20.36
2017-03-25T12:38:49.319Z,20.49
2017-03-25T12:39:59.238Z,20.57
2017-03-25T12:41:09.844Z,20.56
2017-03-25T12:42:20.379Z,20.49
2017-03-25T12:43:30.593Z,20.45
2017-03-25T12:44:40.893Z,20.27
2017-03-25T12:45:51.427Z,20.16
2017-03-25T12:47:01.921Z,19.97
2017-03-25T12:48:12.486Z,19.95
2017-03-25T12:49:23.132Z,19.97
2017-03-25T12:50:33.082Z,19.82
2017-03-25T12:51:43.708Z,19.67
2017-03-25T12:52:53.794Z,19.6
2017-03-25T12:54:04.074Z,19.31
2017-03-25T12:55:14.358Z,19.28
2017-03-25T12:56:24.978Z,19.13
2017-03-25T12:57:35.649Z,18.94
2017-03-25T12:58:46.102Z,19
2017-03-25T12:59:56.312Z,18.8
2017-03-25T13:01:06.542Z,18.8
2017-03-25T13:02:17.123Z,18.69
2017-03-25T13:03:27.703Z,18.5
2017-03-25T13:04:38.489Z,18.52
2017-03-25T13:05:48.711Z,18.53
2017-03-25T13:06:59.329Z,18.4
2017-03-25T13:08:09.860Z,18.34
2017-03-25T13:09:20.419Z,18.07
2017-03-25T13:10:31.281Z,18.12
2017-03-25T13:11:41.524Z,17.91
2017-03-25T13:12:52.065Z,17.95
2017-03-25T13:14:02.266Z,17.94
2017-03-25T13:15:12.595Z,17.85
2017-03-25T13:16:23.134Z,17.8
2017-03-25T13:17:33.344Z,17.73
2017-03-25T13:18:43.684Z,17.68
2017-03-25T13:19:54.217Z,17.61
2017-03-25T13:21:04.850Z,17.52
2017-03-25T13:22:16.324Z,17.46
2017-03-25T13:23:26.874Z,17.38
2017-03-25T13:24:37.182Z,17.39
2017-03-25T13:25:47.700Z,17.39
2017-03-25T13:26:57.625Z,17.36
2017-03-25T13:28:08.166Z,17.27
2017-03-25T13:29:18.773Z,17.11
2017-03-25T13:30:29.340Z,16.98
2017-03-25T13:31:39.935Z,16.89
2017-03-25T13:32:50.535Z,16.8
2017-03-25T13:34:01.007Z,16.74
2017-03-25T13:35:11.563Z,16.64
2017-03-25T13:36:22.103Z,16.47
2017-03-25T13:37:33.602Z,16.29
2017-03-25T13:38:44.139Z,16.24
2017-03-25T13:39:54.723Z,16.2
2017-03-25T13:41:04.949Z,16.2
2017-03-25T13:42:15.220Z,16.04
2017-03-25T13:43:25.360Z,15.99
2017-03-25T13:44:35.948Z,15.95
2017-03-25T13:45:47.872Z,15.94
2017-03-25T13:46:57.505Z,15.98
2017-03-25T13:48:06.795Z,16.01
2017-03-25T13:49:16.113Z,15.96
2017-03-25T13:50:26.052Z,15.84
2017-03-25T13:51:36.304Z,15.92
2017-03-25T13:52:46.270Z,15.76
2017-03-25T13:53:55.936Z,15.66
2017-03-25T13:55:05.885Z,15.64
2017-03-25T13:56:15.627Z,15.64
2017-03-25T13:57:25.907Z,15.68
2017-03-25T13:58:35.962Z,15.7
2017-03-25T13:59:45.585Z,15.72
2017-03-25T14:00:55.222Z,15.6
2017-03-25T14:02:04.851Z,15.53
2017-03-25T14:03:15.038Z,15.63
2017-03-25T14:04:25.016Z,15.54
2017-03-25T14:05:34.947Z,15.45
2017-03-25T14:06:44.965Z,15.46
2017-03-25T14:07:54.897Z,15.43
2017-03-25T14:09:05.167Z,15.33
2017-03-25T14:10:15.163Z,15.25
2017-03-25T14:11:25.115Z,15.23
2017-03-25T14:12:35.257Z,15.21
2017-03-25T14:13:45.216Z,15.13
2017-03-25T14:14:55.085Z,15.09
2017-03-25T14:16:05.013Z,15.14
2017-03-25T14:17:14.619Z,15.13
2017-03-25T14:18:24.576Z,15.05
2017-03-25T14:19:34.253Z,15.08
2017-03-25T14:20:44.506Z,15.14
2017-03-25T14:21:54.449Z,15.23
2017-03-25T14:23:04.437Z,15.15
2017-03-25T14:24:14.421Z,15.05
2017-03-25T14:25:24.366Z,15.08
2017-03-25T14:26:34.279Z,15.15
2017-03-25T14:27:43.896Z,15.05
2017-03-25T14:28:53.834Z,15
2017-03-25T14:30:03.921Z,14.93
2017-03-25T14:31:13.554Z,14.99
2017-03-25T14:32:23.775Z,14.95
2017-03-25T14:33:33.717Z,14.99
2017-03-25T14:34:43.012Z,14.98
2017-03-25T14:35:52.658Z,14.87
2017-03-25T14:37:02.297Z,14.93
2017-03-25T14:38:12.476Z,14.93
2017-03-25T14:39:22.178Z,14.87
2017-03-25T14:40:32.157Z,14.8
2017-03-25T14:41:42.091Z,14.81
2017-03-25T14:42:52.050Z,14.84
2017-03-25T14:44:02.298Z,14.85
2017-03-25T14:45:11.914Z,14.88
2017-03-25T14:46:21.294Z,14.84
2017-03-25T14:47:31.285Z,14.88
2017-03-25T14:48:40.945Z,14.98
2017-03-25T14:49:51.154Z,14.95
2017-03-25T14:51:01.091Z,14.91
2017-03-25T14:52:11.069Z,14.91
2017-03-25T14:53:20.683Z,14.96
2017-03-25T14:54:30.362Z,14.96
2017-03-25T14:55:40.232Z,14.93
2017-03-25T14:56:50.329Z,14.95
2017-03-25T14:57:59.650Z,14.99
2017-03-25T14:59:09.320Z,14.87
2017-03-25T15:00:19.352Z,14.75
2017-03-25T15:01:29.263Z,14.66
2017-03-25T15:02:38.886Z,14.63
2017-03-25T15:03:48.169Z,14.58
2017-03-25T15:04:57.800Z,14.52
2017-03-25T15:06:07.498Z,14.52
2017-03-25T15:07:17.719Z,14.51
2017-03-25T15:08:27.420Z,14.36
2017-03-25T15:09:37.407Z,14.25
2017-03-25T15:10:47.059Z,14.24
2017-03-25T15:11:57.035Z,14.21
2017-03-25T15:13:07.308Z,14.21
2017-03-25T15:14:17.243Z,14.16
2017-03-25T15:15:27.334Z,14.1
2017-03-25T15:16:37.294Z,14.07
2017-03-25T15:17:47.260Z,14.1
2017-03-25T15:18:57.183Z,14.06
2017-03-25T15:20:07.134Z,14.03
2017-03-25T15:21:17.117Z,14
2017-03-25T15:22:27.099Z,13.99
2017-03-25T15:23:37.070Z,14.04